createdAt,value
2023-04-11T00:01:39.507Z,61.18
2023-04-11T00:04:08.010Z,61.31
2023-04-11T00:06:36.574Z,61.44
2023-04-11T00:09:05.073Z,61.63
2023-04-11T00:11:33.181Z,61.82
2023-04-11T00:14:01.246Z,62.02
2023-04-11T00:16:29.659Z,62.75
2023-04-11T00:18:57.921Z,63.43
2023-04-11T00:21:26.295Z,63.36
2023-04-11T00:23:55.484Z,63.04
2023-04-11T00:26:23.827Z,62.82
2023-04-11T00:28:51.957Z,62.38
2023-04-11T00:31:20.182Z,62.01
2023-04-11T00:33:48.303Z,61.60
2023-04-11T00:36:16.640Z,61.34
2023-04-11T00:38:46.507Z,61.09
2023-04-11T00:41:14.656Z,60.86
2023-04-11T00:43:43.488Z,60.57
2023-04-11T00:46:11.914Z,60.43
2023-04-11T00:48:40.294Z,60.16
2023-04-11T00:51:08.709Z,60.10
2023-04-11T00:53:37.838Z,59.95
2023-04-11T00:56:07.115Z,59.45
2023-04-11T00:58:37.812Z,58.69
2023-04-11T01:01:09.258Z,58.74
2023-04-11T01:03:39.802Z,58.99
2023-04-11T01:06:11.219Z,59.37
2023-04-11T01:08:42.601Z,59.72
2023-04-11T01:11:12.889Z,60.03
2023-04-11T01:13:41.968Z,60.34
2023-04-11T01:16:10.791Z,60.70
2023-04-11T01:18:39.126Z,61.02
2023-04-11T01:21:07.884Z,61.28
2023-04-11T01:23:36.125Z,61.51
2023-04-11T01:26:04.376Z,61.76
2023-04-11T01:28:32.580Z,62.49
2023-04-11T01:31:01.982Z,63.31
2023-04-11T01:33:30.626Z,63.33
2023-04-11T01:35:58.852Z,63.07
2023-04-11T01:38:27.036Z,62.87
2023-04-11T01:40:57.541Z,62.55
2023-04-11T01:43:25.737Z,62.29
2023-04-11T01:45:54.119Z,62.02
2023-04-11T01:48:22.862Z,61.73
2023-04-11T01:50:52.061Z,61.50
2023-04-11T01:53:20.113Z,61.23
2023-04-11T01:55:48.370Z,61.01
2023-04-11T01:58:16.513Z,60.74
2023-04-11T02:00:44.750Z,60.60
2023-04-11T02:03:13.135Z,60.43
2023-04-11T02:05:42.935Z,60.28
2023-04-11T02:08:11.432Z,60.19
2023-04-11T02:10:39.589Z,60.12
2023-04-11T02:13:07.807Z,60.13
2023-04-11T02:15:35.923Z,60.25
2023-04-11T02:18:04.305Z,60.31
2023-04-11T02:20:32.591Z,60.30
2023-04-11T02:23:04.564Z,60.39
2023-04-11T02:25:33.269Z,60.54
2023-04-11T02:28:01.387Z,60.61
2023-04-11T02:30:29.565Z,60.62
2023-04-11T02:32:57.643Z,60.59
2023-04-11T02:35:26.306Z,60.57
2023-04-11T02:37:54.640Z,60.51
2023-04-11T02:40:22.752Z,60.38
2023-04-11T02:42:50.878Z,60.20
2023-04-11T02:45:19.366Z,60.03
2023-04-11T02:47:47.503Z,60.03
2023-04-11T02:50:16.228Z,60.04
2023-04-11T02:52:49.518Z,59.95
2023-04-11T02:55:20.032Z,59.77
2023-04-11T02:57:48.102Z,59.20
2023-04-11T03:00:20.236Z,58.73
2023-04-11T03:02:57.545Z,58.89
2023-04-11T03:05:26.382Z,59.47
2023-04-11T03:07:55.056Z,59.90
2023-04-11T03:10:26.168Z,60.31
2023-04-11T03:12:54.952Z,60.69
2023-04-11T03:15:23.193Z,61.15
2023-04-11T03:17:51.486Z,61.54
2023-04-11T03:20:20.328Z,62.30
2023-04-11T03:22:54.048Z,63.14
2023-04-11T03:25:22.814Z,63.35
2023-04-11T03:27:52.143Z,63.36
2023-04-11T03:30:20.327Z,63.37
2023-04-11T03:32:49.251Z,63.24
2023-04-11T03:35:18.910Z,63.23
2023-04-11T03:37:48.237Z,63.13
2023-04-11T03:40:18.632Z,63.07
2023-04-11T03:42:51.119Z,62.96
2023-04-11T03:45:22.466Z,62.85
2023-04-11T03:47:51.464Z,62.74
2023-04-11T03:50:20.649Z,62.78
2023-04-11T03:52:50.163Z,62.68
2023-04-11T03:55:18.751Z,62.68
2023-04-11T03:57:47.034Z,62.60
2023-04-11T04:00:15.933Z,62.76
2023-04-11T04:02:49.467Z,62.80
2023-04-11T04:05:17.819Z,62.77
2023-04-11T04:07:45.957Z,62.69
2023-04-11T04:10:21.399Z,62.69
2023-04-11T04:12:53.424Z,62.60
2023-04-11T04:15:25.216Z,62.68
2023-04-11T04:17:54.083Z,62.59
2023-04-11T04:20:28.748Z,62.74
2023-04-11T04:23:00.289Z,62.87
2023-04-11T04:25:42.260Z,63.02
2023-04-11T04:28:11.583Z,63.11
2023-04-11T04:30:40.833Z,63.10
2023-04-11T04:33:12.489Z,63.01
2023-04-11T04:35:43.172Z,63.02
2023-04-11T04:38:18.135Z,63.06
2023-04-11T04:40:54.779Z,63.13
2023-04-11T04:43:24.639Z,63.20
2023-04-11T04:46:15.769Z,63.45
2023-04-11T04:48:48.022Z,63.57
2023-04-11T04:51:16.185Z,63.61
2023-04-11T04:53:44.369Z,63.67
2023-04-11T04:56:12.696Z,63.65
2023-04-11T04:58:45.451Z,63.52
2023-04-11T05:01:14.152Z,63.54
2023-04-11T05:13:47.797Z,63.82
2023-04-11T05:16:18.335Z,63.84
2023-04-11T05:18:47.022Z,64.02
2023-04-11T05:21:15.788Z,64.22
2023-04-11T05:23:45.598Z,64.37
2023-04-11T05:26:13.957Z,64.57
2023-04-11T05:28:42.553Z,64.75
2023-04-11T05:31:13.809Z,64.85
2023-04-11T05:33:43.274Z,64.99
2023-04-11T05:36:14.535Z,64.99
2023-04-11T05:38:44.420Z,64.96
2023-04-11T05:41:13.076Z,64.83
2023-04-11T05:43:41.145Z,64.67
2023-04-11T05:46:10.752Z,64.62
2023-04-11T05:48:39.576Z,64.53
2023-04-11T05:51:08.133Z,64.47
2023-04-11T05:53:36.342Z,64.51
2023-04-11T05:56:04.791Z,64.54
2023-04-11T05:58:34.258Z,64.65
2023-04-11T06:01:02.378Z,64.80
2023-04-11T06:03:30.743Z,64.82
2023-04-11T06:06:00.422Z,64.86
2023-04-11T06:08:28.801Z,64.96
2023-04-11T06:10:56.874Z,65.24
2023-04-11T06:13:26.110Z,65.25
2023-04-11T06:15:54.896Z,65.46
2023-04-11T06:18:23.007Z,65.60
2023-04-11T06:20:51.184Z,65.61
2023-04-11T06:23:19.450Z,65.91
2023-04-11T06:25:47.664Z,66.09
2023-04-11T06:28:15.840Z,66.31
2023-04-11T06:30:44.095Z,66.33
2023-04-11T06:33:12.466Z,66.48
2023-04-11T06:35:41.051Z,66.58
2023-04-11T06:38:09.425Z,66.54
2023-04-11T06:40:37.719Z,66.41
2023-04-11T06:43:06.013Z,66.42
2023-04-11T06:45:34.325Z,66.48
2023-04-11T06:48:02.425Z,66.47
2023-04-11T06:50:30.869Z,66.27
2023-04-11T06:52:59.753Z,66.17
2023-04-11T06:55:27.880Z,66.16
2023-04-11T06:57:56.023Z,66.11
2023-04-11T07:00:24.965Z,65.97
2023-04-11T07:02:53.301Z,65.87
2023-04-11T07:05:21.706Z,65.83
2023-04-11T07:07:50.239Z,65.69
2023-04-11T07:10:18.293Z,65.56
2023-04-11T07:12:46.393Z,65.49
2023-04-11T07:15:15.112Z,65.36
2023-04-11T07:17:43.492Z,65.33
2023-04-11T07:20:12.516Z,65.22
2023-04-11T07:22:43.486Z,65.16
2023-04-11T07:25:11.683Z,65.10
2023-04-11T07:27:43.876Z,65.04
2023-04-11T07:30:12.904Z,65.00
2023-04-11T07:32:40.994Z,64.90
2023-04-11T07:35:10.247Z,64.92
2023-04-11T07:37:38.404Z,64.97
2023-04-11T07:40:10.776Z,64.90
2023-04-11T07:42:39.382Z,64.77
2023-04-11T07:45:08.364Z,64.78
2023-04-11T07:47:36.490Z,64.91
2023-04-11T07:50:05.490Z,64.86
2023-04-11T07:52:33.891Z,64.86
2023-04-11T07:55:04.803Z,64.82
2023-04-11T07:57:33.236Z,64.74
2023-04-11T08:00:01.916Z,64.62
2023-04-11T08:02:41.229Z,64.77
2023-04-11T08:05:10.119Z,64.82
2023-04-11T08:07:38.503Z,64.79
2023-04-11T08:10:07.851Z,64.76
2023-04-11T08:12:36.050Z,64.71
2023-04-11T08:15:05.089Z,64.54
2023-04-11T08:17:38.253Z,64.40
2023-04-11T08:20:10.548Z,64.31
2023-04-11T08:22:39.776Z,64.21
2023-04-11T08:25:09.980Z,64.09
2023-04-11T08:27:39.160Z,63.93
2023-04-11T08:30:08.625Z,63.85
2023-04-11T08:32:37.447Z,63.68
2023-04-11T08:35:06.054Z,63.68
2023-04-11T08:37:34.844Z,63.63
2023-04-11T08:40:07.113Z,63.43
2023-04-11T08:42:35.833Z,63.37
2023-04-11T08:45:08.864Z,63.25
2023-04-11T08:47:37.512Z,63.04
2023-04-11T08:50:06.945Z,62.84
2023-04-11T08:52:38.004Z,62.61
2023-04-11T08:55:07.096Z,62.47
2023-04-11T08:57:38.214Z,62.18
2023-04-11T09:00:19.488Z,61.88
2023-04-11T09:03:01.061Z,61.64
2023-04-11T09:05:32.559Z,61.33
2023-04-11T09:08:03.820Z,60.90
2023-04-11T09:10:32.321Z,60.44
2023-04-11T09:13:02.393Z,59.97
2023-04-11T09:15:31.755Z,59.27
2023-04-11T09:18:01.061Z,58.38
2023-04-11T09:20:31.248Z,58.28
2023-04-11T09:22:59.422Z,58.64
2023-04-11T09:25:28.466Z,59.11
2023-04-11T09:28:10.484Z,59.52
2023-04-11T09:30:38.748Z,59.90
2023-04-11T09:33:22.856Z,60.12
2023-04-11T09:35:54.281Z,60.20
2023-04-11T09:38:30.978Z,60.46
2023-04-11T09:41:00.766Z,60.48
2023-04-11T09:43:51.881Z,60.66
2023-04-11T09:46:21.375Z,60.52
2023-04-11T09:48:51.292Z,60.95
2023-04-11T09:53:52.450Z,60.35
2023-04-11T09:56:20.575Z,60.45
2023-04-11T09:58:49.933Z,60.61
2023-04-11T10:01:20.087Z,60.18
2023-04-11T10:03:51.187Z,60.10
2023-04-11T10:06:31.864Z,60.10
2023-04-11T10:09:11.870Z,60.16
2023-04-11T10:11:44.715Z,59.98
2023-04-11T10:14:37.947Z,59.25
2023-04-11T10:17:14.615Z,59.72
2023-04-11T10:19:44.858Z,59.23
2023-04-11T10:22:41.894Z,59.32
2023-04-11T10:25:25.002Z,59.16
2023-04-11T10:28:02.083Z,58.94
2023-04-11T10:30:40.256Z,58.31
2023-04-11T10:33:38.164Z,57.55
2023-04-11T10:36:11.563Z,58.17
2023-04-11T10:38:49.206Z,58.24
2023-04-11T10:41:23.342Z,57.54
2023-04-11T10:43:52.380Z,57.21
2023-04-11T10:46:25.282Z,56.86
2023-04-11T10:49:04.672Z,57.14
2023-04-11T10:51:34.492Z,56.35
2023-04-11T10:54:03.093Z,55.92
2023-04-11T10:56:41.116Z,56.35
2023-04-11T10:59:31.397Z,55.95
2023-04-11T11:02:01.774Z,55.10
2023-04-11T11:04:32.365Z,54.43
2023-04-11T11:07:01.961Z,53.40
2023-04-11T11:09:31.338Z,54.05
2023-04-11T11:12:11.177Z,53.03
2023-04-11T11:14:42.174Z,52.93
2023-04-11T11:17:12.877Z,53.34
2023-04-11T11:19:48.642Z,53.70
2023-04-11T11:22:17.879Z,53.53
2023-04-11T11:24:45.980Z,53.21
2023-04-11T11:27:24.592Z,53.55
2023-04-11T11:29:53.534Z,53.57
2023-04-11T11:32:29.872Z,53.47
2023-04-11T11:34:58.952Z,53.59
2023-04-11T11:37:27.230Z,53.25
2023-04-11T11:39:55.703Z,53.01
2023-04-11T11:42:24.695Z,53.15
2023-04-11T11:44:52.964Z,52.79
2023-04-11T11:47:21.079Z,52.85
2023-04-11T11:49:54.623Z,52.54
2023-04-11T11:52:40.931Z,52.52
2023-04-11T11:55:18.412Z,52.66
2023-04-11T11:57:50.701Z,52.62
2023-04-11T12:00:27.323Z,52.64
2023-04-11T12:03:00.131Z,52.76
2023-04-11T12:05:35.022Z,52.32
2023-04-11T12:08:06.570Z,52.50
2023-04-11T12:10:42.766Z,51.99
2023-04-11T12:13:12.409Z,52.05
2023-04-11T12:15:43.502Z,52.46
2023-04-11T12:18:12.128Z,52.31
2023-04-11T12:20:40.734Z,52.33
2023-04-11T12:23:09.124Z,52.19
2023-04-11T12:25:37.591Z,51.86
2023-04-11T12:28:06.265Z,51.12
2023-04-11T12:30:34.405Z,51.32
2023-04-11T12:33:02.766Z,51.07
2023-04-11T12:35:31.342Z,50.57
2023-04-11T12:37:59.784Z,50.61
2023-04-11T12:40:29.833Z,50.44
2023-04-11T12:42:58.773Z,50.51
2023-04-11T12:45:27.285Z,50.49
2023-04-11T12:47:55.528Z,49.87
2023-04-11T12:50:24.583Z,49.42
2023-04-11T12:52:53.469Z,48.97
2023-04-11T12:55:22.492Z,48.95
2023-04-11T12:57:50.729Z,49.07
2023-04-11T13:00:19.549Z,48.60
2023-04-11T13:02:48.829Z,48.44
2023-04-11T13:05:17.882Z,48.02
2023-04-11T13:07:46.735Z,47.89
2023-04-11T13:10:16.297Z,47.96
2023-04-11T13:12:45.744Z,47.38
2023-04-11T13:15:16.857Z,47.52
2023-04-11T13:17:45.826Z,47.47
2023-04-11T13:20:14.701Z,47.44
2023-04-11T13:22:43.389Z,47.25
2023-04-11T13:25:12.472Z,46.57
2023-04-11T13:27:41.806Z,46.48
2023-04-11T13:30:11.256Z,47.25
2023-04-11T13:32:39.626Z,47.16
2023-04-11T13:35:08.694Z,46.84
2023-04-11T13:37:37.153Z,46.60
2023-04-11T13:40:11.194Z,46.66
2023-04-11T13:42:39.869Z,46.67
2023-04-11T13:45:08.821Z,46.71
2023-04-11T13:47:38.737Z,46.77
2023-04-11T13:50:08.840Z,46.79
2023-04-11T13:52:37.950Z,46.55
2023-04-11T13:55:06.570Z,46.81
2023-04-11T13:57:35.081Z,46.64
2023-04-11T14:00:13.651Z,47.11
2023-04-11T14:02:43.148Z,47.03
2023-04-11T14:05:11.700Z,47.22
2023-04-11T14:07:41.456Z,47.13
2023-04-11T14:10:10.760Z,47.19
2023-04-11T14:12:39.401Z,47.22
2023-04-11T14:15:08.142Z,47.82
2023-04-11T14:17:36.418Z,47.92
2023-04-11T14:20:06.953Z,48.03
2023-04-11T14:22:35.988Z,48.30
2023-04-11T14:25:05.593Z,48.47
2023-04-11T14:27:33.622Z,48.73
2023-04-11T14:30:02.167Z,48.85
2023-04-11T14:32:30.745Z,49.07
2023-04-11T14:35:02.023Z,49.36
2023-04-11T14:37:32.088Z,49.64
2023-04-11T14:40:01.296Z,49.73
2023-04-11T14:42:29.703Z,49.96
2023-04-11T14:44:57.838Z,50.21
2023-04-11T14:47:26.214Z,50.62
2023-04-11T14:49:56.836Z,50.85
2023-04-11T14:52:24.953Z,51.11
2023-04-11T14:54:53.435Z,51.58
2023-04-11T14:57:22.771Z,51.84
2023-04-11T14:59:50.940Z,52.00
2023-04-11T15:02:19.284Z,52.15
2023-04-11T15:04:47.668Z,53.06
2023-04-11T15:07:16.445Z,53.56
2023-04-11T15:09:45.028Z,54.06
2023-04-11T15:12:13.058Z,54.26
2023-04-11T15:14:41.382Z,54.51
2023-04-11T15:17:09.482Z,54.74
2023-04-11T15:19:37.509Z,55.00
2023-04-11T15:22:05.755Z,55.27
2023-04-11T15:24:34.084Z,55.43
2023-04-11T15:27:02.170Z,55.50
2023-04-11T15:29:30.320Z,55.55
2023-04-11T15:32:02.736Z,55.58
2023-04-11T15:34:30.972Z,55.44
2023-04-11T15:36:59.934Z,55.42
2023-04-11T15:39:28.344Z,55.50
2023-04-11T15:41:56.484Z,55.39
2023-04-11T15:44:24.882Z,55.46
2023-04-11T15:46:53.088Z,55.54
2023-04-11T15:49:21.367Z,55.67
2023-04-11T15:51:49.762Z,55.75
2023-04-11T15:54:18.074Z,55.61
2023-04-11T15:56:46.486Z,55.10
2023-04-11T15:59:16.260Z,54.98
2023-04-11T16:01:44.508Z,54.98
2023-04-11T16:04:12.957Z,54.94
2023-04-11T16:06:41.321Z,54.83
2023-04-11T16:09:09.432Z,54.75
2023-04-11T16:11:39.963Z,54.62
2023-04-11T16:14:08.439Z,54.48
2023-04-11T16:16:36.495Z,54.35
2023-04-11T16:19:04.617Z,54.27
2023-04-11T16:21:32.882Z,54.26
2023-04-11T16:24:01.313Z,54.28
2023-04-11T16:26:29.429Z,54.31
2023-04-11T16:28:57.686Z,54.31
2023-04-11T16:31:26.099Z,54.29
2023-04-11T16:33:55.400Z,54.37
2023-04-11T16:36:24.368Z,54.38
2023-04-11T16:38:53.220Z,54.35
2023-04-11T16:41:21.858Z,54.32
2023-04-11T16:43:50.107Z,54.39
2023-04-11T16:46:18.691Z,54.44
2023-04-11T16:48:46.834Z,54.50
2023-04-11T16:51:18.698Z,54.70
2023-04-11T16:53:47.491Z,55.34
2023-04-11T16:56:18.125Z,55.98
2023-04-11T16:58:47.003Z,56.60
2023-04-11T17:01:15.320Z,57.15
2023-04-11T17:03:43.977Z,57.69
2023-04-11T17:06:15.078Z,58.13
2023-04-11T17:08:44.650Z,58.78
2023-04-11T17:11:13.723Z,59.39
2023-04-11T17:13:45.584Z,59.95
2023-04-11T17:16:13.947Z,60.75
2023-04-11T17:18:42.656Z,61.00
2023-04-11T17:21:11.571Z,61.80
2023-04-11T17:23:43.502Z,62.39
2023-04-11T17:26:14.439Z,63.28
2023-04-11T17:28:42.792Z,63.02
2023-04-11T17:31:15.766Z,63.27
2023-04-11T17:33:44.989Z,63.78
2023-04-11T17:36:13.990Z,63.87
2023-04-11T17:38:43.787Z,63.88
2023-04-11T17:41:15.461Z,63.71
2023-04-11T17:43:44.890Z,64.44
2023-04-11T17:46:13.884Z,65.18
2023-04-11T17:48:42.402Z,65.04
2023-04-11T17:51:11.120Z,65.92
2023-04-11T17:53:39.746Z,66.60
2023-04-11T17:56:08.350Z,66.74
2023-04-11T17:58:37.364Z,66.86
2023-04-11T18:01:09.150Z,66.67
2023-04-11T18:03:38.925Z,66.93
2023-04-11T18:06:08.216Z,67.25
2023-04-11T18:11:12.277Z,67.42
2023-04-11T18:13:42.885Z,66.57
2023-04-11T18:16:11.466Z,66.74
2023-04-11T18:18:40.294Z,67.26
2023-04-11T18:21:08.717Z,67.75
2023-04-11T18:23:38.259Z,67.81
2023-04-11T18:26:07.018Z,67.65
2023-04-11T18:28:35.137Z,67.93
2023-04-11T18:31:04.564Z,67.81
2023-04-11T18:33:42.111Z,68.17
2023-04-11T18:36:12.923Z,68.31
2023-04-11T18:38:41.528Z,68.42
2023-04-11T18:41:10.196Z,67.80
2023-04-11T18:43:39.064Z,67.79
2023-04-11T18:46:08.303Z,68.64
2023-04-11T18:48:36.979Z,69.26
2023-04-11T18:51:05.948Z,68.54
2023-04-11T18:53:37.053Z,69.84
2023-04-11T18:56:08.143Z,70.15
2023-04-11T18:58:39.954Z,70.34
2023-04-11T19:01:15.658Z,70.50
2023-04-11T19:03:46.477Z,69.40
2023-04-11T19:06:15.377Z,69.46
2023-04-11T19:08:43.525Z,69.83
2023-04-11T19:11:12.805Z,69.82
2023-04-11T19:13:41.239Z,70.58
2023-04-11T19:16:09.508Z,70.44
2023-04-11T19:18:38.722Z,70.52
2023-04-11T19:21:09.260Z,70.63
2023-04-11T19:23:37.669Z,70.50
2023-04-11T19:26:06.375Z,70.17
2023-04-11T19:28:35.885Z,70.29
2023-04-11T19:31:04.409Z,70.49
2023-04-11T19:33:33.269Z,70.29
2023-04-11T19:36:02.355Z,69.91
2023-04-11T19:38:30.716Z,70.32
2023-04-11T19:41:14.006Z,70.47
2023-04-11T19:43:43.417Z,70.32
2023-04-11T19:46:12.596Z,70.45
2023-04-11T19:48:41.801Z,71.02
2023-04-11T19:51:11.054Z,71.19
2023-04-11T19:53:40.150Z,71.40
2023-04-11T19:56:10.912Z,71.25
2023-04-11T19:58:39.961Z,71.57
2023-04-11T20:01:09.829Z,70.93
2023-04-11T20:03:39.412Z,71.28
2023-04-11T20:06:07.927Z,71.59
2023-04-11T20:08:38.148Z,71.43
2023-04-11T20:11:06.729Z,71.89
2023-04-11T20:13:36.041Z,72.17
2023-04-11T20:16:08.401Z,72.16
2023-04-11T20:18:36.519Z,72.05
2023-04-11T20:21:07.721Z,72.57
2023-04-11T20:23:37.290Z,73.24
2023-04-11T20:26:05.535Z,72.90
2023-04-11T20:28:33.645Z,72.56
2023-04-11T20:31:04.628Z,73.03
2023-04-11T20:33:33.037Z,73.43
2023-04-11T20:36:03.339Z,73.06
2023-04-11T20:38:32.100Z,72.89
2023-04-11T20:41:03.818Z,72.62
2023-04-11T20:43:32.157Z,73.10
2023-04-11T20:46:00.416Z,72.71
2023-04-11T20:48:30.195Z,72.69
2023-04-11T20:51:02.405Z,73.04
2023-04-11T20:53:30.634Z,72.65
2023-04-11T20:55:58.758Z,72.77
2023-04-11T20:58:27.041Z,72.73
2023-04-11T21:00:55.401Z,73.01
2023-04-11T21:03:24.088Z,72.87
2023-04-11T21:05:52.453Z,73.21
2023-04-11T21:08:20.788Z,72.93
2023-04-11T21:10:48.916Z,73.12
2023-04-11T21:13:17.117Z,73.32
2023-04-11T21:15:46.086Z,73.73
2023-04-11T21:18:14.371Z,73.93
2023-04-11T21:20:42.622Z,73.94
2023-04-11T21:23:11.091Z,74.23
2023-04-11T21:25:39.534Z,74.21
2023-04-11T21:28:07.697Z,73.92
2023-04-11T21:30:36.076Z,73.80
2023-04-11T21:33:04.278Z,73.57
2023-04-11T21:35:32.483Z,73.35
2023-04-11T21:38:00.971Z,73.45
2023-04-11T21:40:29.543Z,73.67
2023-04-11T21:42:57.902Z,73.88
2023-04-11T21:45:26.206Z,74.06
2023-04-11T21:47:54.574Z,73.99
2023-04-11T21:50:22.976Z,74.13
2023-04-11T21:52:52.736Z,73.91
2023-04-11T21:55:20.834Z,73.83
2023-04-11T21:57:48.939Z,73.94
2023-04-11T22:00:18.296Z,73.82
2023-04-11T22:02:46.503Z,73.75
2023-04-11T22:05:17.430Z,73.67
2023-04-11T22:07:48.769Z,73.68
2023-04-11T22:10:23.816Z,73.68
2023-04-11T22:12:54.462Z,73.73
2023-04-11T22:15:24.570Z,73.89
2023-04-11T22:17:54.472Z,74.01
2023-04-11T22:20:22.922Z,73.90
2023-04-11T22:22:51.241Z,73.58
2023-04-11T22:25:22.288Z,73.62
2023-04-11T22:27:54.712Z,73.67
2023-04-11T22:30:24.480Z,73.71
2023-04-11T22:32:54.428Z,73.74
2023-04-11T22:35:25.984Z,73.88
2023-04-11T22:37:57.194Z,74.00
2023-04-11T22:40:25.511Z,73.92
2023-04-11T22:42:54.142Z,73.78
2023-04-11T22:45:23.395Z,73.97
2023-04-11T23:13:30.680Z,75.29
2023-04-11T23:16:02.512Z,75.20
2023-04-11T23:18:30.681Z,75.01
2023-04-11T23:20:58.882Z,74.77
2023-04-11T23:23:27.902Z,74.64
2023-04-11T23:25:56.483Z,74.38
2023-04-11T23:28:25.446Z,74.36
2023-04-11T23:31:50.506Z,74.37
2023-04-11T23:34:37.675Z,74.46
2023-04-11T23:37:05.934Z,74.62
2023-04-11T23:39:34.085Z,74.03
2023-04-11T23:42:02.825Z,73.52
2023-04-11T23:44:31.406Z,73.53
2023-04-11T23:47:00.217Z,73.35
2023-04-11T23:49:28.538Z,73.27
2023-04-11T23:51:56.973Z,73.08
2023-04-11T23:54:30.058Z,73.11
2023-04-11T23:56:58.864Z,73.20
2023-04-11T23:59:27.175Z,73.40
